sensor_id;sensor_type;location;lat;lon;timestamp;pressure;altitude;pressure_sealevel;temperature;humidity
7268;BME280;3675;43.276;27.962;2024-01-11T00:01:23;99109.31;;;-5.51;65.11
7268;BME280;3675;43.276;27.962;2024-01-11T00:04:20;99101.22;;;-5.43;64.88
7268;BME280;3675;43.276;27.962;2024-01-11T00:06:59;99105.28;;;-5.46;64.89
7268;BME280;3675;43.276;27.962;2024-01-11T00:13:00;99095.13;;;-5.49;65.05
7268;BME280;3675;43.276;27.962;2024-01-11T00:15:55;99097.63;;;-5.49;65.18
7268;BME280;3675;43.276;27.962;2024-01-11T00:19:11;99109.38;;;-5.50;65.07
7268;BME280;3675;43.276;27.962;2024-01-11T00:22:04;99097.56;;;-5.51;65.03
7268;BME280;3675;43.276;27.962;2024-01-11T00:24:56;99090.75;;;-5.53;64.60
7268;BME280;3675;43.276;27.962;2024-01-11T00:27:37;99097.41;;;-5.55;64.48
7268;BME280;3675;43.276;27.962;2024-01-11T00:30:44;99093.41;;;-5.50;64.39
7268;BME280;3675;43.276;27.962;2024-01-11T00:33:26;99087.56;;;-5.49;64.42
7268;BME280;3675;43.276;27.962;2024-01-11T00:36:15;99092.53;;;-5.51;64.44
7268;BME280;3675;43.276;27.962;2024-01-11T00:39:22;99079.13;;;-5.50;63.78
7268;BME280;3675;43.276;27.962;2024-01-11T00:42:01;99084.97;;;-5.51;63.47
7268;BME280;3675;43.276;27.962;2024-01-11T00:44:46;99074.03;;;-5.51;63.63
7268;BME280;3675;43.276;27.962;2024-01-11T00:47:27;99084.81;;;-5.55;63.72
7268;BME280;3675;43.276;27.962;2024-01-11T00:50:07;99083.06;;;-5.58;63.77
7268;BME280;3675;43.276;27.962;2024-01-11T00:52:58;99084.06;;;-5.53;63.54
7268;BME280;3675;43.276;27.962;2024-01-11T00:59:24;99080.78;;;-5.50;63.06
7268;BME280;3675;43.276;27.962;2024-01-11T01:05:30;99076.66;;;-5.48;62.59
7268;BME280;3675;43.276;27.962;2024-01-11T01:08:22;99077.78;;;-5.40;62.24
7268;BME280;3675;43.276;27.962;2024-01-11T01:11:17;99073.72;;;-5.35;61.81
7268;BME280;3675;43.276;27.962;2024-01-11T01:17:13;99064.31;;;-5.40;61.07
7268;BME280;3675;43.276;27.962;2024-01-11T01:20:10;99064.25;;;-5.42;61.01
7268;BME280;3675;43.276;27.962;2024-01-11T01:22:58;99055.69;;;-5.47;60.97
7268;BME280;3675;43.276;27.962;2024-01-11T01:25:51;99054.81;;;-5.49;61.20
7268;BME280;3675;43.276;27.962;2024-01-11T01:28:53;99043.84;;;-5.50;60.35
7268;BME280;3675;43.276;27.962;2024-01-11T01:31:54;99048.91;;;-5.50;60.25
7268;BME280;3675;43.276;27.962;2024-01-11T01:34:44;99039.72;;;-5.48;60.71
7268;BME280;3675;43.276;27.962;2024-01-11T01:37:33;99033.78;;;-5.50;60.53
7268;BME280;3675;43.276;27.962;2024-01-11T01:40:21;99029.47;;;-5.52;60.54
7268;BME280;3675;43.276;27.962;2024-01-11T01:43:37;99025.50;;;-5.46;60.71
7268;BME280;3675;43.276;27.962;2024-01-11T01:46:31;99018.75;;;-5.47;60.39
7268;BME280;3675;43.276;27.962;2024-01-11T01:49:18;99015.53;;;-5.43;60.32
7268;BME280;3675;43.276;27.962;2024-01-11T01:52:07;99015.31;;;-5.49;60.27
7268;BME280;3675;43.276;27.962;2024-01-11T01:55:02;99003.47;;;-5.51;60.73
7268;BME280;3675;43.276;27.962;2024-01-11T01:58:00;99002.72;;;-5.49;60.15
7268;BME280;3675;43.276;27.962;2024-01-11T02:00:38;98997.66;;;-5.50;60.18
7268;BME280;3675;43.276;27.962;2024-01-11T02:03:42;98999.41;;;-5.48;60.07
7268;BME280;3675;43.276;27.962;2024-01-11T02:06:40;98998.34;;;-5.54;60.21
7268;BME280;3675;43.276;27.962;2024-01-11T02:09:51;98990.03;;;-5.52;59.74
7268;BME280;3675;43.276;27.962;2024-01-11T02:12:48;98986.56;;;-5.55;59.62
7268;BME280;3675;43.276;27.962;2024-01-11T02:15:43;98989.72;;;-5.61;59.42
7268;BME280;3675;43.276;27.962;2024-01-11T02:18:30;98988.13;;;-5.59;59.63
7268;BME280;3675;43.276;27.962;2024-01-11T02:21:27;98986.25;;;-5.64;60.06
7268;BME280;3675;43.276;27.962;2024-01-11T02:24:40;98985.47;;;-5.63;59.58
7268;BME280;3675;43.276;27.962;2024-01-11T02:27:44;98981.16;;;-5.66;59.73
7268;BME280;3675;43.276;27.962;2024-01-11T02:30:32;98976.03;;;-5.69;59.17
7268;BME280;3675;43.276;27.962;2024-01-11T02:33:19;98973.66;;;-5.64;59.10
7268;BME280;3675;43.276;27.962;2024-01-11T02:36:16;98968.72;;;-5.61;59.39
7268;BME280;3675;43.276;27.962;2024-01-11T02:39:10;98967.13;;;-5.59;59.18
7268;BME280;3675;43.276;27.962;2024-01-11T02:42:25;98970.53;;;-5.57;59.11
7268;BME280;3675;43.276;27.962;2024-01-11T02:45:18;98968.78;;;-5.60;59.32
7268;BME280;3675;43.276;27.962;2024-01-11T02:47:59;98973.25;;;-5.51;59.15
7268;BME280;3675;43.276;27.962;2024-01-11T02:51:05;98967.06;;;-5.61;59.13
7268;BME280;3675;43.276;27.962;2024-01-11T02:53:52;98966.47;;;-5.54;59.16
7268;BME280;3675;43.276;27.962;2024-01-11T02:56:42;98958.06;;;-5.53;59.00
7268;BME280;3675;43.276;27.962;2024-01-11T02:59:30;98957.22;;;-5.53;58.64
7268;BME280;3675;43.276;27.962;2024-01-11T03:02:16;98959.84;;;-5.50;58.99
7268;BME280;3675;43.276;27.962;2024-01-11T03:05:10;98953.94;;;-5.51;58.93
7268;BME280;3675;43.276;27.962;2024-01-11T03:08:11;98956.47;;;-5.51;58.63
7268;BME280;3675;43.276;27.962;2024-01-11T03:11:12;98954.81;;;-5.50;58.02
7268;BME280;3675;43.276;27.962;2024-01-11T03:14:33;98951.34;;;-5.54;57.75
7268;BME280;3675;43.276;27.962;2024-01-11T03:17:36;98942.78;;;-5.59;58.35
7268;BME280;3675;43.276;27.962;2024-01-11T03:20:32;98944.53;;;-5.56;58.18
7268;BME280;3675;43.276;27.962;2024-01-11T03:23:19;98930.94;;;-5.61;58.04
7268;BME280;3675;43.276;27.962;2024-01-11T03:26:25;98936.16;;;-5.55;58.45
7268;BME280;3675;43.276;27.962;2024-01-11T03:29:31;98930.34;;;-5.54;58.49
7268;BME280;3675;43.276;27.962;2024-01-11T03:32:25;98931.22;;;-5.52;57.74
7268;BME280;3675;43.276;27.962;2024-01-11T03:35:12;98931.94;;;-5.56;57.75
7268;BME280;3675;43.276;27.962;2024-01-11T03:38:05;98927.59;;;-5.60;57.90
7268;BME280;3675;43.276;27.962;2024-01-11T03:40:58;98916.66;;;-5.61;58.01
7268;BME280;3675;43.276;27.962;2024-01-11T03:43:59;98920.03;;;-5.60;58.26
7268;BME280;3675;43.276;27.962;2024-01-11T03:46:46;98917.59;;;-5.59;58.15
7268;BME280;3675;43.276;27.962;2024-01-11T03:49:25;98914.94;;;-5.62;58.24
7268;BME280;3675;43.276;27.962;2024-01-11T03:52:05;98918.44;;;-5.58;58.28
7268;BME280;3675;43.276;27.962;2024-01-11T03:54:59;98911.63;;;-5.61;58.42
7268;BME280;3675;43.276;27.962;2024-01-11T03:58:05;98910.13;;;-5.56;58.45
7268;BME280;3675;43.276;27.962;2024-01-11T04:01:08;98905.72;;;-5.63;58.50
7268;BME280;3675;43.276;27.962;2024-01-11T04:04:03;98901.75;;;-5.55;58.48
7268;BME280;3675;43.276;27.962;2024-01-11T04:07:17;98895.84;;;-5.55;58.24
7268;BME280;3675;43.276;27.962;2024-01-11T04:10:15;98897.56;;;-5.54;58.65
7268;BME280;3675;43.276;27.962;2024-01-11T04:13:40;98900.84;;;-5.57;58.65
7268;BME280;3675;43.276;27.962;2024-01-11T04:16:34;98902.63;;;-5.54;58.32
7268;BME280;3675;43.276;27.962;2024-01-11T04:19:26;98896.72;;;-5.55;58.81
7268;BME280;3675;43.276;27.962;2024-01-11T04:22:16;98891.97;;;-5.46;58.31
7268;BME280;3675;43.276;27.962;2024-01-11T04:25:12;98900.25;;;-5.48;58.43
7268;BME280;3675;43.276;27.962;2024-01-11T04:28:16;98891.03;;;-5.49;58.47
7268;BME280;3675;43.276;27.962;2024-01-11T04:31:11;98900.97;;;-5.52;58.69
7268;BME280;3675;43.276;27.962;2024-01-11T04:34:25;98891.91;;;-5.47;58.31
7268;BME280;3675;43.276;27.962;2024-01-11T04:37:18;98894.34;;;-5.50;59.07
7268;BME280;3675;43.276;27.962;2024-01-11T04:39:55;98896.34;;;-5.40;58.69
7268;BME280;3675;43.276;27.962;2024-01-11T04:42:43;98903.91;;;-5.40;58.70
7268;BME280;3675;43.276;27.962;2024-01-11T04:45:38;98901.69;;;-5.29;58.27
7268;BME280;3675;43.276;27.962;2024-01-11T04:48:39;98895.06;;;-5.26;58.34
7268;BME280;3675;43.276;27.962;2024-01-11T04:51:13;98896.84;;;-5.23;58.54
7268;BME280;3675;43.276;27.962;2024-01-11T04:54:06;98901.88;;;-5.23;58.13
7268;BME280;3675;43.276;27.962;2024-01-11T04:56:54;98896.88;;;-5.22;58.14
7268;BME280;3675;43.276;27.962;2024-01-11T04:59:35;98897.59;;;-5.26;58.47
7268;BME280;3675;43.276;27.962;2024-01-11T05:02:31;98896.84;;;-5.23;58.63
7268;BME280;3675;43.276;27.962;2024-01-11T05:05:18;98894.47;;;-5.19;58.56
7268;BME280;3675;43.276;27.962;2024-01-11T05:08:45;98896.88;;;-5.22;59.49
7268;BME280;3675;43.276;27.962;2024-01-11T05:11:48;98897.59;;;-5.26;59.31
7268;BME280;3675;43.276;27.962;2024-01-11T05:15:48;98896.06;;;-5.21;59.40
7268;BME280;3675;43.276;27.962;2024-01-11T05:21:14;98891.00;;;-5.22;59.51
7268;BME280;3675;43.276;27.962;2024-01-11T05:23:56;98887.69;;;-5.20;59.05
7268;BME280;3675;43.276;27.962;2024-01-11T05:27:26;98885.13;;;-5.21;58.94
7268;BME280;3675;43.276;27.962;2024-01-11T05:30:24;98887.75;;;-5.18;58.95
7268;BME280;3675;43.276;27.962;2024-01-11T05:33:15;98873.50;;;-5.18;58.59
7268;BME280;3675;43.276;27.962;2024-01-11T05:36:05;98876.09;;;-5.13;57.87
7268;BME280;3675;43.276;27.962;2024-01-11T05:38:50;98867.81;;;-5.11;57.77
7268;BME280;3675;43.276;27.962;2024-01-11T05:41:42;98872.91;;;-5.08;57.07
7268;BME280;3675;43.276;27.962;2024-01-11T05:44:24;98863.88;;;-5.01;56.22
7268;BME280;3675;43.276;27.962;2024-01-11T05:47:19;98862.22;;;-5.01;56.04
7268;BME280;3675;43.276;27.962;2024-01-11T05:50:10;98858.13;;;-4.95;55.59
7268;BME280;3675;43.276;27.962;2024-01-11T05:52:53;98857.38;;;-4.93;55.26
7268;BME280;3675;43.276;27.962;2024-01-11T05:58:26;98869.94;;;-4.94;55.10
7268;BME280;3675;43.276;27.962;2024-01-11T06:01:10;98858.84;;;-5.01;54.40
7268;BME280;3675;43.276;27.962;2024-01-11T06:04:05;98858.19;;;-4.94;54.95
7268;BME280;3675;43.276;27.962;2024-01-11T06:07:12;98850.50;;;-4.99;54.85
7268;BME280;3675;43.276;27.962;2024-01-11T06:10:01;98848.91;;;-4.95;53.89
7268;BME280;3675;43.276;27.962;2024-01-11T06:12:40;98855.00;;;-4.88;53.94
7268;BME280;3675;43.276;27.962;2024-01-11T06:15:27;98855.97;;;-4.83;53.41
7268;BME280;3675;43.276;27.962;2024-01-11T06:18:36;98846.00;;;-4.79;53.11
7268;BME280;3675;43.276;27.962;2024-01-11T06:21:36;98853.09;;;-4.66;52.75
7268;BME280;3675;43.276;27.962;2024-01-11T06:24:42;98847.34;;;-4.60;52.41
7268;BME280;3675;43.276;27.962;2024-01-11T06:27:34;98852.31;;;-4.63;52.14
7268;BME280;3675;43.276;27.962;2024-01-11T06:30:15;98844.09;;;-4.56;52.38
7268;BME280;3675;43.276;27.962;2024-01-11T06:32:52;98847.69;;;-4.48;51.39
7268;BME280;3675;43.276;27.962;2024-01-11T06:38:49;98844.56;;;-4.38;50.95
7268;BME280;3675;43.276;27.962;2024-01-11T06:41:31;98850.44;;;-4.39;50.88
7268;BME280;3675;43.276;27.962;2024-01-11T06:44:14;98847.13;;;-4.36;50.71
7268;BME280;3675;43.276;27.962;2024-01-11T06:47:08;98848.97;;;-4.31;50.03
7268;BME280;3675;43.276;27.962;2024-01-11T06:49:51;98851.56;;;-4.28;49.80
7268;BME280;3675;43.276;27.962;2024-01-11T06:52:39;98843.19;;;-4.27;49.78
7268;BME280;3675;43.276;27.962;2024-01-11T06:55:34;98846.75;;;-4.19;49.47
7268;BME280;3675;43.276;27.962;2024-01-11T06:58:16;98840.03;;;-4.18;49.15
7268;BME280;3675;43.276;27.962;2024-01-11T07:01:03;98838.53;;;-4.12;49.00
7268;BME280;3675;43.276;27.962;2024-01-11T07:03:46;98841.00;;;-4.13;49.27
7268;BME280;3675;43.276;27.962;2024-01-11T07:06:22;98834.22;;;-4.14;50.08
7268;BME280;3675;43.276;27.962;2024-01-11T07:09:00;98829.06;;;-4.19;49.80
7268;BME280;3675;43.276;27.962;2024-01-11T07:11:56;98831.75;;;-4.13;49.40
7268;BME280;3675;43.276;27.962;2024-01-11T07:14:32;98828.44;;;-4.10;49.49
7268;BME280;3675;43.276;27.962;2024-01-11T07:17:05;98822.63;;;-4.07;48.83
7268;BME280;3675;43.276;27.962;2024-01-11T07:19:48;98824.34;;;-4.05;49.35
7268;BME280;3675;43.276;27.962;2024-01-11T07:22:28;98820.31;;;-3.98;49.30
7268;BME280;3675;43.276;27.962;2024-01-11T07:25:18;98817.06;;;-3.93;49.34
7268;BME280;3675;43.276;27.962;2024-01-11T07:28:06;98828.19;;;-3.85;49.14
7268;BME280;3675;43.276;27.962;2024-01-11T07:30:43;98822.59;;;-3.73;49.43
7268;BME280;3675;43.276;27.962;2024-01-11T07:33:24;98810.94;;;-3.67;48.48
7268;BME280;3675;43.276;27.962;2024-01-11T07:36:10;98816.34;;;-3.51;47.60
7268;BME280;3675;43.276;27.962;2024-01-11T07:38:47;98815.75;;;-3.40;47.78
7268;BME280;3675;43.276;27.962;2024-01-11T07:41:32;98809.22;;;-3.30;47.01
7268;BME280;3675;43.276;27.962;2024-01-11T07:44:16;98800.22;;;-3.16;46.25
7268;BME280;3675;43.276;27.962;2024-01-11T07:46:54;98802.03;;;-3.10;45.26
7268;BME280;3675;43.276;27.962;2024-01-11T07:49:34;98802.09;;;-3.07;45.85
7268;BME280;3675;43.276;27.962;2024-01-11T07:52:13;98799.66;;;-3.03;44.94
7268;BME280;3675;43.276;27.962;2024-01-11T07:55:00;98792.94;;;-3.02;45.52
7268;BME280;3675;43.276;27.962;2024-01-11T07:57:37;98789.69;;;-2.95;44.60
7268;BME280;3675;43.276;27.962;2024-01-11T08:00:15;98791.44;;;-2.91;44.94
7268;BME280;3675;43.276;27.962;2024-01-11T08:03:15;98790.06;;;-2.74;44.70
7268;BME280;3675;43.276;27.962;2024-01-11T08:05:58;98787.88;;;-2.56;44.73
7268;BME280;3675;43.276;27.962;2024-01-11T08:08:40;98787.31;;;-2.41;44.93
7268;BME280;3675;43.276;27.962;2024-01-11T08:11:16;98784.19;;;-2.27;43.67
7268;BME280;3675;43.276;27.962;2024-01-11T08:13:59;98791.19;;;-2.10;43.39
7268;BME280;3675;43.276;27.962;2024-01-11T08:16:57;98788.28;;;-1.82;42.85
7268;BME280;3675;43.276;27.962;2024-01-11T08:19:34;98784.16;;;-1.74;41.57
7268;BME280;3675;43.276;27.962;2024-01-11T08:22:11;98776.59;;;-1.71;42.00
7268;BME280;3675;43.276;27.962;2024-01-11T08:25:03;98776.84;;;-1.53;42.74
7268;BME280;3675;43.276;27.962;2024-01-11T08:27:42;98771.88;;;-1.45;42.28
7268;BME280;3675;43.276;27.962;2024-01-11T08:30:15;98764.41;;;-1.34;42.86
7268;BME280;3675;43.276;27.962;2024-01-11T08:32:53;98764.59;;;-1.21;41.66
7268;BME280;3675;43.276;27.962;2024-01-11T08:35:38;98760.59;;;-1.01;42.14
7268;BME280;3675;43.276;27.962;2024-01-11T08:38:18;98754.81;;;-0.89;41.00
7268;BME280;3675;43.276;27.962;2024-01-11T08:40:58;98754.06;;;-0.80;42.98
7268;BME280;3675;43.276;27.962;2024-01-11T08:43:40;98736.41;;;-0.68;41.85
7268;BME280;3675;43.276;27.962;2024-01-11T08:46:24;98733.88;;;-0.67;41.01
7268;BME280;3675;43.276;27.962;2024-01-11T08:49:03;98731.34;;;-0.65;41.34
7268;BME280;3675;43.276;27.962;2024-01-11T08:54:44;98722.09;;;-0.60;42.08
7268;BME280;3675;43.276;27.962;2024-01-11T08:57:30;98716.22;;;-0.55;40.42
7268;BME280;3675;43.276;27.962;2024-01-11T09:00:16;98713.63;;;-0.59;39.52
7268;BME280;3675;43.276;27.962;2024-01-11T09:03:04;98702.63;;;-0.60;40.01
7268;BME280;3675;43.276;27.962;2024-01-11T09:05:59;98700.09;;;-0.57;38.93
7268;BME280;3675;43.276;27.962;2024-01-11T09:08:36;98685.78;;;-0.50;39.19
7268;BME280;3675;43.276;27.962;2024-01-11T09:11:15;98681.69;;;-0.30;38.53
7268;BME280;3675;43.276;27.962;2024-01-11T09:13:58;98675.16;;;0.07;38.97
7268;BME280;3675;43.276;27.962;2024-01-11T09:16:34;98676.19;;;0.45;37.34
7268;BME280;3675;43.276;27.962;2024-01-11T09:19:11;98665.28;;;0.66;37.52
7268;BME280;3675;43.276;27.962;2024-01-11T09:21:58;98664.50;;;0.95;36.70
7268;BME280;3675;43.276;27.962;2024-01-11T09:24:37;98656.91;;;1.26;36.89
7268;BME280;3675;43.276;27.962;2024-01-11T09:27:13;98650.97;;;1.46;36.03
7268;BME280;3675;43.276;27.962;2024-01-11T09:30:01;98650.06;;;1.81;35.85
7268;BME280;3675;43.276;27.962;2024-01-11T09:32:37;98639.00;;;1.96;35.42
7268;BME280;3675;43.276;27.962;2024-01-11T09:35:18;98637.31;;;2.01;35.12
7268;BME280;3675;43.276;27.962;2024-01-11T09:37:59;98626.31;;;1.72;34.92
7268;BME280;3675;43.276;27.962;2024-01-11T09:40:39;98623.78;;;1.40;35.65
7268;BME280;3675;43.276;27.962;2024-01-11T09:43:17;98620.41;;;1.14;36.53
7268;BME280;3675;43.276;27.962;2024-01-11T09:45:54;98622.09;;;1.24;36.85
7268;BME280;3675;43.276;27.962;2024-01-11T09:48:37;98616.13;;;1.34;36.46
7268;BME280;3675;43.276;27.962;2024-01-11T09:51:12;98604.25;;;1.53;36.97
7268;BME280;3675;43.276;27.962;2024-01-11T09:54:04;98609.31;;;1.69;36.39
7268;BME280;3675;43.276;27.962;2024-01-11T09:56:52;98606.78;;;1.72;37.25
7268;BME280;3675;43.276;27.962;2024-01-11T09:59:29;98598.31;;;1.43;36.98
7268;BME280;3675;43.276;27.962;2024-01-11T10:02:25;98595.75;;;1.29;37.62
7268;BME280;3675;43.276;27.962;2024-01-11T10:05:02;98591.53;;;1.36;37.86
7268;BME280;3675;43.276;27.962;2024-01-11T10:07:45;98590.59;;;1.78;38.72
7268;BME280;3675;43.276;27.962;2024-01-11T10:10:36;98579.47;;;2.09;38.62
7268;BME280;3675;43.276;27.962;2024-01-11T10:13:17;98576.03;;;2.19;37.08
7268;BME280;3675;43.276;27.962;2024-01-11T10:16:07;98558.13;;;2.30;37.00
7268;BME280;3675;43.276;27.962;2024-01-11T10:18:49;98563.94;;;2.53;37.12
7268;BME280;3675;43.276;27.962;2024-01-11T10:21:34;98556.13;;;2.79;36.99
7268;BME280;3675;43.276;27.962;2024-01-11T10:24:20;98554.25;;;3.04;37.22
7268;BME280;3675;43.276;27.962;2024-01-11T10:27:00;98547.19;;;3.35;35.40
7268;BME280;3675;43.276;27.962;2024-01-11T10:29:40;98541.84;;;3.56;36.33
7268;BME280;3675;43.276;27.962;2024-01-11T10:32:18;98535.56;;;3.87;36.43
7268;BME280;3675;43.276;27.962;2024-01-11T10:34:57;98527.34;;;4.30;34.93
7268;BME280;3675;43.276;27.962;2024-01-11T10:37:44;98528.19;;;4.30;34.80
7268;BME280;3675;43.276;27.962;2024-01-11T10:40:20;98517.66;;;4.53;35.69
7268;BME280;3675;43.276;27.962;2024-01-11T10:42:59;98508.91;;;4.68;34.33
7268;BME280;3675;43.276;27.962;2024-01-11T10:46:00;98505.16;;;4.88;35.89
7268;BME280;3675;43.276;27.962;2024-01-11T10:49:00;98500.13;;;5.34;35.68
7268;BME280;3675;43.276;27.962;2024-01-11T10:51:42;98488.69;;;5.52;35.34
7268;BME280;3675;43.276;27.962;2024-01-11T10:54:24;98490.09;;;5.68;34.92
7268;BME280;3675;43.276;27.962;2024-01-11T10:57:13;98477.44;;;5.59;33.61
7268;BME280;3675;43.276;27.962;2024-01-11T11:00:08;98469.66;;;6.07;34.16
7268;BME280;3675;43.276;27.962;2024-01-11T11:02:53;98462.69;;;6.13;32.35
7268;BME280;3675;43.276;27.962;2024-01-11T11:08:34;98447.75;;;5.92;33.55
7268;BME280;3675;43.276;27.962;2024-01-11T11:11:11;98437.66;;;5.80;31.28
7268;BME280;3675;43.276;27.962;2024-01-11T11:14:00;98442.72;;;5.84;33.97
7268;BME280;3675;43.276;27.962;2024-01-11T11:16:57;98437.22;;;6.03;34.41
7268;BME280;3675;43.276;27.962;2024-01-11T11:19:36;98435.47;;;6.05;34.30
7268;BME280;3675;43.276;27.962;2024-01-11T11:22:19;98435.94;;;5.80;33.93
7268;BME280;3675;43.276;27.962;2024-01-11T11:25:09;98433.97;;;5.53;33.05
7268;BME280;3675;43.276;27.962;2024-01-11T11:27:58;98435.00;;;5.43;33.87
7268;BME280;3675;43.276;27.962;2024-01-11T11:30:43;98425.16;;;5.20;33.62
7268;BME280;3675;43.276;27.962;2024-01-11T11:33:24;98424.03;;;4.87;34.89
7268;BME280;3675;43.276;27.962;2024-01-11T11:36:09;98423.69;;;4.58;36.11
7268;BME280;3675;43.276;27.962;2024-01-11T11:38:54;98410.63;;;4.20;38.31
7268;BME280;3675;43.276;27.962;2024-01-11T11:41:31;98411.63;;;4.08;39.94
7268;BME280;3675;43.276;27.962;2024-01-11T11:44:17;98406.69;;;3.94;39.82
7268;BME280;3675;43.276;27.962;2024-01-11T11:47:25;98402.59;;;3.84;40.07
7268;BME280;3675;43.276;27.962;2024-01-11T11:50:11;98401.03;;;3.73;40.64
7268;BME280;3675;43.276;27.962;2024-01-11T11:52:54;98394.31;;;3.67;40.88
7268;BME280;3675;43.276;27.962;2024-01-11T11:55:30;98390.84;;;3.70;41.88
7268;BME280;3675;43.276;27.962;2024-01-11T11:58:13;98386.69;;;3.59;42.01
7268;BME280;3675;43.276;27.962;2024-01-11T12:00:59;98382.50;;;3.57;42.59
7268;BME280;3675;43.276;27.962;2024-01-11T12:03:36;98384.31;;;3.47;43.65
7268;BME280;3675;43.276;27.962;2024-01-11T12:06:20;98381.00;;;3.39;43.50
7268;BME280;3675;43.276;27.962;2024-01-11T12:09:00;98366.56;;;3.34;44.32
7268;BME280;3675;43.276;27.962;2024-01-11T12:11:35;98375.16;;;3.28;42.87
7268;BME280;3675;43.276;27.962;2024-01-11T12:14:32;98368.44;;;3.21;43.58
7268;BME280;3675;43.276;27.962;2024-01-11T12:17:10;98370.16;;;3.19;44.75
7268;BME280;3675;43.276;27.962;2024-01-11T12:22:40;98360.88;;;3.12;45.86
7268;BME280;3675;43.276;27.962;2024-01-11T12:25:20;98360.91;;;3.09;46.68
7268;BME280;3675;43.276;27.962;2024-01-11T12:28:00;98354.16;;;3.03;46.29
7268;BME280;3675;43.276;27.962;2024-01-11T12:30:52;98354.25;;;2.96;46.42
7268;BME280;3675;43.276;27.962;2024-01-11T12:33:31;98353.41;;;2.92;47.28
7268;BME280;3675;43.276;27.962;2024-01-11T12:36:25;98337.41;;;2.77;47.69
7268;BME280;3675;43.276;27.962;2024-01-11T12:39:31;98340.09;;;2.61;48.90
7268;BME280;3675;43.276;27.962;2024-01-11T12:42:12;98326.53;;;2.58;49.09
7268;BME280;3675;43.276;27.962;2024-01-11T12:44:53;98328.28;;;2.53;50.09
7268;BME280;3675;43.276;27.962;2024-01-11T12:47:31;98320.63;;;2.54;50.96
7268;BME280;3675;43.276;27.962;2024-01-11T12:50:11;98326.63;;;2.49;50.78
7268;BME280;3675;43.276;27.962;2024-01-11T12:53:11;98326.66;;;2.44;50.21
7268;BME280;3675;43.276;27.962;2024-01-11T12:56:09;98325.84;;;2.42;50.01
7268;BME280;3675;43.276;27.962;2024-01-11T12:58:49;98313.09;;;2.42;50.62
7268;BME280;3675;43.276;27.962;2024-01-11T13:01:27;98312.19;;;2.45;50.89
7268;BME280;3675;43.276;27.962;2024-01-11T13:04:01;98309.69;;;2.42;49.94
7268;BME280;3675;43.276;27.962;2024-01-11T13:06:41;98303.69;;;2.44;48.79
7268;BME280;3675;43.276;27.962;2024-01-11T13:09:29;98311.44;;;2.35;49.40
7268;BME280;3675;43.276;27.962;2024-01-11T13:12:12;98307.25;;;2.30;49.10
7268;BME280;3675;43.276;27.962;2024-01-11T13:14:52;98304.69;;;2.30;47.85
7268;BME280;3675;43.276;27.962;2024-01-11T13:17:32;98294.53;;;2.25;47.25
7268;BME280;3675;43.276;27.962;2024-01-11T13:20:12;98295.47;;;2.13;47.11
7268;BME280;3675;43.276;27.962;2024-01-11T13:25:44;98289.53;;;2.10;48.71
7268;BME280;3675;43.276;27.962;2024-01-11T13:28:25;98285.28;;;2.10;49.58
7268;BME280;3675;43.276;27.962;2024-01-11T13:31:00;98286.97;;;2.14;50.43
7268;BME280;3675;43.276;27.962;2024-01-11T13:33:49;98285.22;;;2.19;50.64
7268;BME280;3675;43.276;27.962;2024-01-11T13:36:27;98283.56;;;2.15;52.16
7268;BME280;3675;43.276;27.962;2024-01-11T13:39:17;98267.41;;;2.15;50.26
7268;BME280;3675;43.276;27.962;2024-01-11T13:42:06;98263.09;;;2.18;50.42
7268;BME280;3675;43.276;27.962;2024-01-11T13:44:48;98274.97;;;2.24;50.81
7268;BME280;3675;43.276;27.962;2024-01-11T13:47:28;98270.72;;;2.23;52.10
7268;BME280;3675;43.276;27.962;2024-01-11T13:50:06;98266.50;;;2.19;52.38
7268;BME280;3675;43.276;27.962;2024-01-11T13:53:05;98266.50;;;2.20;51.96
7268;BME280;3675;43.276;27.962;2024-01-11T13:55:44;98260.59;;;2.15;50.19
7268;BME280;3675;43.276;27.962;2024-01-11T13:58:24;98255.59;;;2.03;50.95
7268;BME280;3675;43.276;27.962;2024-01-11T14:01:06;98256.38;;;2.08;51.19
7268;BME280;3675;43.276;27.962;2024-01-11T14:03:49;98249.66;;;2.03;51.05
7268;BME280;3675;43.276;27.962;2024-01-11T14:06:23;98239.47;;;2.00;51.64
7268;BME280;3675;43.276;27.962;2024-01-11T14:08:58;98251.41;;;1.96;51.50
7268;BME280;3675;43.276;27.962;2024-01-11T14:11:38;98238.69;;;1.93;51.85
7268;BME280;3675;43.276;27.962;2024-01-11T14:14:13;98247.16;;;1.98;52.66
7268;BME280;3675;43.276;27.962;2024-01-11T14:16:52;98244.63;;;1.91;51.75
7268;BME280;3675;43.276;27.962;2024-01-11T14:19:24;98237.06;;;1.83;51.74
7268;BME280;3675;43.276;27.962;2024-01-11T14:22:03;98244.78;;;1.74;51.31
7268;BME280;3675;43.276;27.962;2024-01-11T14:24:45;98232.88;;;1.73;50.06
7268;BME280;3675;43.276;27.962;2024-01-11T14:27:22;98227.13;;;1.50;49.93
7268;BME280;3675;43.276;27.962;2024-01-11T14:30:07;98225.44;;;1.50;49.97
7268;BME280;3675;43.276;27.962;2024-01-11T14:32:48;98217.00;;;1.39;50.33
7268;BME280;3675;43.276;27.962;2024-01-11T14:35:36;98227.25;;;1.30;50.82
7268;BME280;3675;43.276;27.962;2024-01-11T14:38:17;98221.38;;;1.22;51.72
7268;BME280;3675;43.276;27.962;2024-01-11T14:40:56;98217.13;;;1.21;51.98
7268;BME280;3675;43.276;27.962;2024-01-11T14:43:35;98210.38;;;1.11;52.52
7268;BME280;3675;43.276;27.962;2024-01-11T14:46:11;98201.91;;;1.09;52.61
7268;BME280;3675;43.276;27.962;2024-01-11T14:48:57;98195.22;;;0.97;53.14
7268;BME280;3675;43.276;27.962;2024-01-11T14:51:34;98196.91;;;0.97;53.00
7268;BME280;3675;43.276;27.962;2024-01-11T14:54:19;98195.22;;;0.97;53.37
7268;BME280;3675;43.276;27.962;2024-01-11T14:57:08;98200.34;;;0.85;54.19
7268;BME280;3675;43.276;27.962;2024-01-11T14:59:50;98196.97;;;0.81;54.18
7268;BME280;3675;43.276;27.962;2024-01-11T15:02:30;98193.59;;;0.78;53.94
7268;BME280;3675;43.276;27.962;2024-01-11T15:05:12;98182.59;;;0.74;53.73
7268;BME280;3675;43.276;27.962;2024-01-11T15:08:15;98177.53;;;0.68;53.98
7268;BME280;3675;43.276;27.962;2024-01-11T15:10:55;98184.34;;;0.60;54.30
7268;BME280;3675;43.276;27.962;2024-01-11T15:13:35;98176.69;;;0.63;54.03
7268;BME280;3675;43.276;27.962;2024-01-11T15:16:20;98175.84;;;0.58;54.02
7268;BME280;3675;43.276;27.962;2024-01-11T15:19:02;98181.00;;;0.51;53.82
7268;BME280;3675;43.276;27.962;2024-01-11T15:21:43;98175.94;;;0.41;54.07
7268;BME280;3675;43.276;27.962;2024-01-11T15:24:30;98163.25;;;0.28;54.15
7268;BME280;3675;43.276;27.962;2024-01-11T15:27:04;98175.16;;;0.24;54.06
7268;BME280;3675;43.276;27.962;2024-01-11T15:29:43;98162.41;;;0.29;54.18
7268;BME280;3675;43.276;27.962;2024-01-11T15:32:23;98164.13;;;0.30;54.17
7268;BME280;3675;43.276;27.962;2024-01-11T15:35:00;98156.47;;;0.28;54.02
7268;BME280;3675;43.276;27.962;2024-01-11T15:37:42;98163.31;;;0.22;53.83